createdAt,value
2022-12-06T00:02:21.006Z,3.33
2022-12-06T00:05:25.791Z,5.43
2022-12-06T00:08:30.592Z,4.30
2022-12-06T00:11:37.136Z,2.80
2022-12-06T00:14:41.539Z,3.35
2022-12-06T00:17:46.405Z,2.45
2022-12-06T00:20:51.219Z,2.72
2022-12-06T00:24:00.636Z,2.17
2022-12-06T00:27:05.299Z,2.70
2022-12-06T00:30:10.541Z,2.47
2022-12-06T00:33:15.171Z,3.45
2022-12-06T00:36:23.577Z,3.00
2022-12-06T00:39:28.104Z,2.67
2022-12-06T00:42:32.835Z,2.25
2022-12-06T00:45:37.626Z,1.85
2022-12-06T00:48:42.886Z,2.67
2022-12-06T00:51:47.458Z,2.63
2022-12-06T00:54:51.865Z,2.33
2022-12-06T00:57:56.468Z,2.38
2022-12-06T01:01:14.666Z,2.80
2022-12-06T01:04:19.379Z,3.03
2022-12-06T01:07:24.051Z,2.38
2022-12-06T01:10:28.625Z,2.53
2022-12-06T01:13:33.408Z,3.75
2022-12-06T01:16:39.198Z,3.50
2022-12-06T01:19:43.622Z,2.80
2022-12-06T01:22:48.000Z,4.40
2022-12-06T01:25:53.032Z,2.97
2022-12-06T01:28:59.284Z,3.80
2022-12-06T01:32:03.776Z,2.95
2022-12-06T01:35:08.669Z,3.95
2022-12-06T01:38:13.731Z,3.92
2022-12-06T01:41:20.907Z,3.88
2022-12-06T01:44:48.209Z,6.13
2022-12-06T01:47:53.062Z,4.60
2022-12-06T01:50:59.033Z,4.40
2022-12-06T01:54:08.834Z,4.78
2022-12-06T01:57:15.817Z,6.18
2022-12-06T02:00:20.583Z,4.38
2022-12-06T02:03:30.248Z,3.10
2022-12-06T02:06:35.545Z,3.20
2022-12-06T02:09:41.266Z,4.65
2022-12-06T02:12:49.884Z,2.88
2022-12-06T02:16:21.810Z,4.43
2022-12-06T02:20:07.470Z,3.67
2022-12-06T02:23:51.984Z,3.60
2022-12-06T02:27:34.491Z,3.22
2022-12-06T02:30:41.987Z,3.83
2022-12-06T02:34:08.855Z,2.53
2022-12-06T02:37:20.107Z,3.72
2022-12-06T02:40:35.240Z,3.17
2022-12-06T02:43:48.632Z,4.63
2022-12-06T02:46:56.236Z,3.00
2022-12-06T02:50:07.828Z,3.92
2022-12-06T02:53:17.783Z,3.33
2022-12-06T02:56:23.841Z,3.72
2022-12-06T02:59:28.340Z,4.32
2022-12-06T03:02:34.848Z,3.17
2022-12-06T03:06:01.224Z,3.88
2022-12-06T03:09:05.695Z,3.90
2022-12-06T03:12:39.601Z,3.83
2022-12-06T03:16:36.716Z,3.20
2022-12-06T03:19:42.324Z,3.33
2022-12-06T03:22:53.114Z,4.72
2022-12-06T03:26:00.952Z,8.18
2022-12-06T03:29:09.388Z,3.70
2022-12-06T03:32:17.683Z,3.28
2022-12-06T03:35:29.145Z,3.03
2022-12-06T03:38:49.586Z,3.30
2022-12-06T03:41:58.530Z,2.63
2022-12-06T03:45:04.838Z,3.28
2022-12-06T03:48:21.049Z,4.25
2022-12-06T03:51:37.321Z,3.58
2022-12-06T03:54:42.463Z,3.42
2022-12-06T03:57:47.388Z,4.93
2022-12-06T04:00:52.015Z,3.47
2022-12-06T04:03:57.000Z,2.60
2022-12-06T04:07:01.523Z,2.83
2022-12-06T04:10:07.141Z,4.30
2022-12-06T04:13:15.445Z,4.70
2022-12-06T04:16:42.275Z,3.00
2022-12-06T04:19:51.850Z,4.93
2022-12-06T04:23:05.893Z,3.05
2022-12-06T04:29:37.191Z,2.40
2022-12-06T04:33:00.131Z,3.28
2022-12-06T04:36:23.551Z,4.50
2022-12-06T04:39:28.312Z,3.75
2022-12-06T04:42:50.847Z,3.13
2022-12-06T04:45:55.489Z,3.10
2022-12-06T04:49:00.418Z,4.05
2022-12-06T04:52:06.956Z,3.80
2022-12-06T04:55:11.192Z,2.65
2022-12-06T04:58:16.418Z,3.90
2022-12-06T05:01:21.340Z,2.72
2022-12-06T05:04:26.068Z,4.30
2022-12-06T05:07:30.671Z,3.60
2022-12-06T05:10:35.930Z,2.80
2022-12-06T05:13:40.648Z,4.88
2022-12-06T05:16:44.996Z,3.20
2022-12-06T05:19:49.699Z,3.90
2022-12-06T05:22:54.096Z,2.60
2022-12-06T05:26:04.547Z,2.50
2022-12-06T05:29:09.879Z,3.10
2022-12-06T05:32:14.148Z,2.80
2022-12-06T05:35:18.421Z,2.22
2022-12-06T05:38:23.809Z,3.80
2022-12-06T05:41:28.491Z,3.40
2022-12-06T05:44:33.295Z,3.42
2022-12-06T05:47:38.036Z,2.88
2022-12-06T05:50:42.482Z,2.97
2022-12-06T05:53:47.081Z,3.70
2022-12-06T05:56:51.780Z,2.35
2022-12-06T05:59:56.613Z,3.38
2022-12-06T06:03:01.457Z,3.75
2022-12-06T06:06:06.557Z,3.60
2022-12-06T06:09:11.073Z,2.35
2022-12-06T06:12:15.870Z,2.17
2022-12-06T06:15:20.736Z,4.15
2022-12-06T06:18:25.309Z,3.00
2022-12-06T06:21:29.718Z,3.60
2022-12-06T06:24:43.084Z,3.33
2022-12-06T06:27:47.604Z,2.67
2022-12-06T06:30:52.481Z,2.80
2022-12-06T06:33:57.500Z,3.05
2022-12-06T06:37:02.165Z,3.72
2022-12-06T06:40:07.719Z,2.50
2022-12-06T06:43:21.014Z,2.85
2022-12-06T06:46:26.217Z,5.18
2022-12-06T06:49:30.665Z,2.88
2022-12-06T06:52:35.941Z,3.00
2022-12-06T06:55:40.802Z,3.15
2022-12-06T06:58:45.645Z,2.05
2022-12-06T07:01:51.303Z,3.10
2022-12-06T07:04:55.999Z,2.40
2022-12-06T07:08:00.547Z,2.35
2022-12-06T07:11:05.691Z,3.22
2022-12-06T07:14:10.370Z,2.63
2022-12-06T07:17:15.197Z,4.85
2022-12-06T07:20:20.393Z,3.08
2022-12-06T07:23:24.853Z,2.85
2022-12-06T07:26:29.349Z,2.63
2022-12-06T07:29:33.837Z,3.10
2022-12-06T07:32:38.372Z,2.95
2022-12-06T07:36:10.835Z,2.58
2022-12-06T07:39:13.076Z,2.80
2022-12-06T07:42:37.615Z,3.20
2022-12-06T07:45:42.035Z,2.30
2022-12-06T07:48:46.842Z,2.70
2022-12-06T07:51:53.970Z,3.97
2022-12-06T07:54:58.459Z,2.33
2022-12-06T07:58:03.214Z,2.97
2022-12-06T08:01:07.962Z,2.58
2022-12-06T08:04:13.236Z,2.55
2022-12-06T08:07:18.460Z,2.47
2022-12-06T08:10:23.284Z,2.88
2022-12-06T08:13:29.370Z,2.55
2022-12-06T08:16:34.129Z,2.97
2022-12-06T08:19:39.018Z,3.78
2022-12-06T08:22:43.505Z,2.97
2022-12-06T08:25:55.760Z,2.20
2022-12-06T08:29:01.614Z,2.78
2022-12-06T08:32:06.029Z,3.30
2022-12-06T08:35:10.921Z,3.35
2022-12-06T08:38:16.748Z,3.20
2022-12-06T08:41:42.031Z,5.15
2022-12-06T08:44:46.896Z,2.78
2022-12-06T08:47:51.651Z,1.70
2022-12-06T08:50:57.063Z,3.22
2022-12-06T08:54:02.220Z,4.20
2022-12-06T08:57:07.089Z,2.28
2022-12-06T09:00:13.142Z,2.40
2022-12-06T09:03:17.461Z,1.67
2022-12-06T09:06:22.694Z,2.13
2022-12-06T09:09:27.522Z,2.05
2022-12-06T09:12:32.135Z,2.72
2022-12-06T09:15:38.667Z,1.75
2022-12-06T09:18:44.433Z,2.50
2022-12-06T09:21:48.935Z,1.67
2022-12-06T09:24:53.825Z,1.77
2022-12-06T09:27:59.928Z,2.13
2022-12-06T09:31:06.470Z,2.08
2022-12-06T09:34:12.705Z,2.25
2022-12-06T09:37:17.509Z,1.90
2022-12-06T09:40:39.787Z,1.02
2022-12-06T09:44:36.176Z,1.50
2022-12-06T09:47:52.712Z,1.55
2022-12-06T09:51:19.814Z,2.35
2022-12-06T09:55:11.984Z,1.20
2022-12-06T09:58:33.546Z,1.77
2022-12-06T10:01:56.907Z,0.98
2022-12-06T10:05:07.358Z,2.28
2022-12-06T10:08:33.500Z,1.83
2022-12-06T10:11:52.392Z,1.50
2022-12-06T10:15:15.455Z,0.90
2022-12-06T10:18:35.421Z,2.13
2022-12-06T10:22:18.481Z,1.50
2022-12-06T10:25:34.022Z,2.45
2022-12-06T10:28:49.846Z,1.58
2022-12-06T10:32:01.816Z,2.60
2022-12-06T10:35:40.987Z,2.25
2022-12-06T10:38:58.718Z,1.48
2022-12-06T10:42:14.351Z,1.23
2022-12-06T10:45:48.750Z,2.28
2022-12-06T10:49:35.698Z,1.65
2022-12-06T10:53:02.407Z,1.77
2022-12-06T10:56:34.962Z,1.05
2022-12-06T10:59:52.173Z,2.13
2022-12-06T11:03:20.309Z,1.30
2022-12-06T11:06:43.921Z,1.67
2022-12-06T11:09:54.799Z,2.17
2022-12-06T11:13:22.121Z,1.58
2022-12-06T11:16:50.726Z,2.15
2022-12-06T11:20:12.288Z,1.75
2022-12-06T11:23:32.362Z,1.63
2022-12-06T11:26:53.239Z,1.52
2022-12-06T11:29:58.123Z,2.40
2022-12-06T11:33:04.307Z,1.83
2022-12-06T11:36:09.927Z,0.70
2022-12-06T11:39:15.983Z,2.17
2022-12-06T11:42:27.792Z,1.70
2022-12-06T11:45:42.727Z,1.15
2022-12-06T11:48:47.950Z,2.15
2022-12-06T11:51:53.438Z,1.60
2022-12-06T11:55:07.317Z,1.75
2022-12-06T11:58:27.077Z,2.17
2022-12-06T12:02:01.132Z,2.40
2022-12-06T12:05:22.544Z,1.50
2022-12-06T12:08:32.733Z,1.40
2022-12-06T12:11:41.510Z,1.25
2022-12-06T12:14:54.893Z,1.38
2022-12-06T12:18:01.794Z,2.22
2022-12-06T12:21:07.706Z,2.42
2022-12-06T12:28:28.215Z,0.90
2022-12-06T12:31:32.943Z,2.38
2022-12-06T12:34:42.761Z,2.05
2022-12-06T12:38:36.646Z,1.98
2022-12-06T12:41:43.944Z,2.35
2022-12-06T12:44:49.013Z,0.80
2022-12-06T12:48:20.355Z,2.53
2022-12-06T12:51:33.174Z,1.48
2022-12-06T12:54:38.094Z,0.88
2022-12-06T12:57:47.212Z,3.00
2022-12-06T13:01:02.187Z,1.30
2022-12-06T13:04:41.635Z,1.77
2022-12-06T13:07:48.207Z,1.15
2022-12-06T13:10:59.231Z,2.15
2022-12-06T13:14:05.100Z,1.92
2022-12-06T13:17:13.474Z,2.40
2022-12-06T13:20:33.657Z,2.55
2022-12-06T13:23:40.248Z,1.88
2022-12-06T13:26:53.725Z,1.35
2022-12-06T13:30:07.320Z,1.38
2022-12-06T13:33:27.106Z,1.65
2022-12-06T13:36:34.246Z,1.77
2022-12-06T13:39:40.305Z,1.10
2022-12-06T13:42:45.973Z,1.17
2022-12-06T13:46:07.346Z,4.43
2022-12-06T13:49:25.889Z,1.40
2022-12-06T13:52:42.415Z,1.38
2022-12-06T13:56:02.020Z,1.52
2022-12-06T13:59:12.601Z,1.67
2022-12-06T14:02:43.842Z,1.38
2022-12-06T14:06:15.477Z,1.40
2022-12-06T14:09:23.616Z,2.08
2022-12-06T14:12:29.443Z,1.52
2022-12-06T14:15:38.604Z,1.90
2022-12-06T14:18:43.433Z,1.55
2022-12-06T14:22:02.625Z,1.55
2022-12-06T14:25:19.703Z,3.92
2022-12-06T14:28:24.492Z,1.42
2022-12-06T14:31:34.991Z,2.35
2022-12-06T14:34:39.437Z,1.58
2022-12-06T14:38:22.921Z,1.77
2022-12-06T14:41:57.264Z,1.88
2022-12-06T14:45:02.962Z,2.20
2022-12-06T14:48:12.548Z,1.30
2022-12-06T14:51:26.536Z,3.17
2022-12-06T14:54:42.827Z,1.67
2022-12-06T14:58:14.247Z,2.75
2022-12-06T15:01:28.082Z,1.60
2022-12-06T15:04:39.593Z,1.35
2022-12-06T15:07:44.158Z,2.05
2022-12-06T15:11:00.746Z,1.92
2022-12-06T15:14:29.305Z,3.00
2022-12-06T15:17:33.893Z,1.60
2022-12-06T15:20:38.312Z,1.08
2022-12-06T15:23:52.010Z,2.03
2022-12-06T15:26:57.127Z,1.48
2022-12-06T15:30:01.881Z,1.65
2022-12-06T15:33:23.468Z,2.30
2022-12-06T15:36:33.142Z,2.38
2022-12-06T15:39:37.977Z,1.73
2022-12-06T15:42:43.373Z,2.17
2022-12-06T15:45:48.050Z,2.47
2022-12-06T15:48:54.042Z,2.55
2022-12-06T15:51:59.003Z,1.95
2022-12-06T15:55:03.997Z,3.55
2022-12-06T15:58:09.057Z,2.50
2022-12-06T16:01:25.948Z,1.38
2022-12-06T16:04:32.599Z,2.83
2022-12-06T16:07:37.150Z,2.17
2022-12-06T16:11:10.904Z,1.58
2022-12-06T16:14:06.541Z,2.00
2022-12-06T16:17:11.002Z,1.85
2022-12-06T16:20:33.487Z,1.60
2022-12-06T16:24:13.846Z,1.75
2022-12-06T16:27:18.671Z,1.52
2022-12-06T16:30:34.471Z,2.58
2022-12-06T16:33:38.983Z,2.13
2022-12-06T16:37:02.263Z,1.85
2022-12-06T16:40:15.561Z,1.98
2022-12-06T16:43:20.545Z,2.13
2022-12-06T16:46:29.680Z,2.42
2022-12-06T16:49:48.503Z,1.90
2022-12-06T16:52:54.533Z,2.20
2022-12-06T16:55:59.298Z,1.63
2022-12-06T16:59:04.137Z,2.00
2022-12-06T17:02:31.106Z,2.25
2022-12-06T17:05:35.919Z,3.00
2022-12-06T17:08:40.943Z,2.10
2022-12-06T17:12:06.230Z,2.28
2022-12-06T17:15:17.836Z,2.15
2022-12-06T17:18:22.619Z,2.78
2022-12-06T17:21:28.348Z,3.28
2022-12-06T17:24:33.377Z,2.30
2022-12-06T17:27:39.542Z,2.72
2022-12-06T17:30:49.445Z,3.03
2022-12-06T17:33:58.153Z,3.38
2022-12-06T17:37:03.161Z,2.70
2022-12-06T17:40:09.003Z,3.03
2022-12-06T17:43:13.698Z,4.10
2022-12-06T17:46:18.617Z,2.55
2022-12-06T17:49:25.725Z,2.60
2022-12-06T17:52:30.353Z,3.08
2022-12-06T17:55:35.245Z,4.82
2022-12-06T17:58:40.297Z,2.22
2022-12-06T18:02:13.615Z,3.08
2022-12-06T18:05:10.625Z,3.17
2022-12-06T18:08:15.582Z,3.70
2022-12-06T18:11:21.509Z,3.72
2022-12-06T18:14:26.263Z,3.17
2022-12-06T18:17:31.099Z,4.20
2022-12-06T18:20:35.785Z,3.10
2022-12-06T18:24:12.825Z,4.22
2022-12-06T18:27:07.268Z,3.92
2022-12-06T18:30:12.347Z,3.63
2022-12-06T18:33:20.931Z,3.10
2022-12-06T18:36:28.112Z,2.72
2022-12-06T18:39:33.120Z,2.90
2022-12-06T18:42:38.587Z,3.17
2022-12-06T18:45:43.245Z,4.78
2022-12-06T18:48:52.363Z,4.40
2022-12-06T18:51:57.138Z,4.30
2022-12-06T18:55:02.390Z,4.22
2022-12-06T18:58:07.425Z,3.58
2022-12-06T19:01:14.971Z,3.97
2022-12-06T19:04:19.898Z,5.22
2022-12-06T19:07:25.180Z,4.00
2022-12-06T19:10:30.830Z,3.60
2022-12-06T19:13:35.318Z,4.45
2022-12-06T19:16:49.722Z,3.55
2022-12-06T19:26:05.071Z,3.90
2022-12-06T19:29:10.275Z,3.83
2022-12-06T19:32:15.600Z,5.00
2022-12-06T19:35:20.013Z,4.13
2022-12-06T19:38:25.157Z,4.13
2022-12-06T19:41:30.618Z,3.47
2022-12-06T19:44:35.325Z,3.92
2022-12-06T19:47:40.178Z,4.40
2022-12-06T19:50:45.185Z,4.18
2022-12-06T19:53:50.333Z,4.10
2022-12-06T19:56:58.401Z,3.90
2022-12-06T20:00:04.762Z,3.90
2022-12-06T20:03:17.063Z,3.45
2022-12-06T20:06:25.570Z,4.22
2022-12-06T20:09:31.705Z,4.55
2022-12-06T20:12:36.406Z,4.88
2022-12-06T20:15:41.316Z,5.07
2022-12-06T20:18:46.492Z,4.60
2022-12-06T20:21:51.684Z,7.20
2022-12-06T20:24:56.185Z,3.97
2022-12-06T20:28:02.552Z,4.72
2022-12-06T20:31:13.034Z,4.53
2022-12-06T20:34:19.086Z,5.22
2022-12-06T20:37:24.023Z,4.30
2022-12-06T20:40:31.563Z,4.68
2022-12-06T20:43:37.756Z,4.35
2022-12-06T20:46:42.354Z,4.93
2022-12-06T20:49:47.176Z,4.93
2022-12-06T20:52:52.121Z,3.85
2022-12-06T20:56:07.044Z,5.20
2022-12-06T20:59:11.843Z,3.92
2022-12-06T21:02:16.781Z,4.03
2022-12-06T21:05:21.624Z,4.68
2022-12-06T21:08:27.115Z,5.80
2022-12-06T21:11:32.023Z,4.53
2022-12-06T21:14:37.006Z,4.75
2022-12-06T21:17:41.843Z,4.78
2022-12-06T21:20:47.257Z,5.47
2022-12-06T21:23:52.134Z,4.68
2022-12-06T21:26:57.483Z,4.28
2022-12-06T21:30:03.374Z,4.88
2022-12-06T21:33:09.638Z,4.18
2022-12-06T21:36:14.383Z,4.65
2022-12-06T21:39:19.292Z,5.15
2022-12-06T21:42:24.883Z,4.60
2022-12-06T21:45:29.832Z,5.25
2022-12-06T21:48:35.241Z,4.53
2022-12-06T21:51:40.365Z,4.60
2022-12-06T21:54:45.177Z,5.65
2022-12-06T21:57:50.595Z,5.72
2022-12-06T22:00:55.842Z,5.15
2022-12-06T22:04:03.279Z,5.05
2022-12-06T22:07:08.310Z,5.25
2022-12-06T22:10:13.248Z,6.85
2022-12-06T22:13:18.995Z,5.10
2022-12-06T22:16:24.181Z,6.28
2022-12-06T22:19:28.623Z,5.13
2022-12-06T22:22:33.986Z,4.90
2022-12-06T22:25:39.733Z,4.95
2022-12-06T22:28:44.693Z,6.05
2022-12-06T22:31:49.746Z,4.20
2022-12-06T22:34:54.975Z,6.38
2022-12-06T22:37:59.669Z,5.40
2022-12-06T22:41:05.654Z,5.13
2022-12-06T22:44:11.281Z,5.10
2022-12-06T22:47:15.657Z,5.72
2022-12-06T22:50:20.545Z,5.40
2022-12-06T22:53:25.464Z,5.13
2022-12-06T22:56:33.253Z,7.07
2022-12-06T22:59:37.752Z,4.63
2022-12-06T23:02:42.695Z,6.20
2022-12-06T23:05:47.394Z,4.50
2022-12-06T23:08:53.379Z,4.60
2022-12-06T23:11:57.793Z,5.35
2022-12-06T23:15:02.262Z,5.30
2022-12-06T23:18:06.853Z,4.65
2022-12-06T23:21:16.879Z,4.85
2022-12-06T23:24:21.320Z,6.43
2022-12-06T23:27:26.013Z,5.65
2022-12-06T23:30:30.614Z,6.15
2022-12-06T23:33:35.400Z,7.03
2022-12-06T23:36:40.265Z,4.97
2022-12-06T23:39:45.183Z,7.07
2022-12-06T23:42:49.831Z,6.88
2022-12-06T23:45:59.199Z,4.68
2022-12-06T23:49:06.995Z,5.10
2022-12-06T23:52:11.470Z,4.43
2022-12-06T23:55:16.084Z,4.22
2022-12-06T23:58:20.935Z,5.13
